sensor_id;sensor_type;location;lat;lon;timestamp;temperature;humidity
7234;DHT22;3658;47.992;10.158;2023-08-06T00:00:25;21.60;58.20
7234;DHT22;3658;47.992;10.158;2023-08-06T00:02:52;21.60;58.20
7234;DHT22;3658;47.992;10.158;2023-08-06T00:05:19;21.60;58.20
7234;DHT22;3658;47.992;10.158;2023-08-06T00:07:48;21.60;58.20
7234;DHT22;3658;47.992;10.158;2023-08-06T00:10:15;21.60;58.20
7234;DHT22;3658;47.992;10.158;2023-08-06T00:12:42;21.60;58.20
7234;DHT22;3658;47.992;10.158;2023-08-06T00:15:10;21.60;58.20
7234;DHT22;3658;47.992;10.158;2023-08-06T00:17:37;21.60;58.20
7234;DHT22;3658;47.992;10.158;2023-08-06T00:20:05;21.60;58.20
7234;DHT22;3658;47.992;10.158;2023-08-06T00:22:32;21.60;58.20
7234;DHT22;3658;47.992;10.158;2023-08-06T00:25:01;21.60;58.20
7234;DHT22;3658;47.992;10.158;2023-08-06T00:27:27;21.60;58.20
7234;DHT22;3658;47.992;10.158;2023-08-06T00:29:54;21.60;58.20
7234;DHT22;3658;47.992;10.158;2023-08-06T00:32:21;21.60;58.20
7234;DHT22;3658;47.992;10.158;2023-08-06T00:34:48;21.60;58.20
7234;DHT22;3658;47.992;10.158;2023-08-06T00:37:15;21.60;58.20
7234;DHT22;3658;47.992;10.158;2023-08-06T00:39:43;21.60;58.20
7234;DHT22;3658;47.992;10.158;2023-08-06T00:42:12;21.60;58.20
7234;DHT22;3658;47.992;10.158;2023-08-06T00:44:39;21.60;58.20
7234;DHT22;3658;47.992;10.158;2023-08-06T00:47:07;21.60;58.20
7234;DHT22;3658;47.992;10.158;2023-08-06T00:49:35;21.60;58.20
7234;DHT22;3658;47.992;10.158;2023-08-06T00:52:03;21.60;58.20
7234;DHT22;3658;47.992;10.158;2023-08-06T00:54:31;21.60;58.20
7234;DHT22;3658;47.992;10.158;2023-08-06T00:56:59;21.60;58.20
7234;DHT22;3658;47.992;10.158;2023-08-06T00:59:29;21.60;58.10
7234;DHT22;3658;47.992;10.158;2023-08-06T01:01:56;21.60;58.10
7234;DHT22;3658;47.992;10.158;2023-08-06T01:04:23;21.60;58.20
7234;DHT22;3658;47.992;10.158;2023-08-06T01:07:07;21.60;58.10
7234;DHT22;3658;47.992;10.158;2023-08-06T01:09:44;21.60;58.10
7234;DHT22;3658;47.992;10.158;2023-08-06T01:12:20;21.60;58.10
7234;DHT22;3658;47.992;10.158;2023-08-06T01:14:57;21.60;58.10
7234;DHT22;3658;47.992;10.158;2023-08-06T01:17:25;21.60;58.10
7234;DHT22;3658;47.992;10.158;2023-08-06T01:19:53;21.60;58.10
7234;DHT22;3658;47.992;10.158;2023-08-06T01:22:21;21.60;58.10
7234;DHT22;3658;47.992;10.158;2023-08-06T01:24:49;21.60;58.10
7234;DHT22;3658;47.992;10.158;2023-08-06T01:27:22;21.60;58.10
7234;DHT22;3658;47.992;10.158;2023-08-06T01:29:58;21.60;58.10
7234;DHT22;3658;47.992;10.158;2023-08-06T01:32:26;21.60;58.20
7234;DHT22;3658;47.992;10.158;2023-08-06T01:34:54;21.60;58.20
7234;DHT22;3658;47.992;10.158;2023-08-06T01:37:23;21.60;58.10
7234;DHT22;3658;47.992;10.158;2023-08-06T01:39:50;21.60;58.10
7234;DHT22;3658;47.992;10.158;2023-08-06T01:42:17;21.60;58.10
7234;DHT22;3658;47.992;10.158;2023-08-06T01:44:43;21.50;58.00
7234;DHT22;3658;47.992;10.158;2023-08-06T01:47:10;21.50;58.00
7234;DHT22;3658;47.992;10.158;2023-08-06T01:49:37;21.50;58.10
7234;DHT22;3658;47.992;10.158;2023-08-06T01:52:04;21.60;58.10
7234;DHT22;3658;47.992;10.158;2023-08-06T01:54:32;21.60;58.10
7234;DHT22;3658;47.992;10.158;2023-08-06T01:56:59;21.60;58.10
7234;DHT22;3658;47.992;10.158;2023-08-06T01:59:26;21.60;58.10
7234;DHT22;3658;47.992;10.158;2023-08-06T02:01:53;21.60;58.10
7234;DHT22;3658;47.992;10.158;2023-08-06T02:04:19;21.60;58.10
7234;DHT22;3658;47.992;10.158;2023-08-06T02:06:46;21.50;58.00
7234;DHT22;3658;47.992;10.158;2023-08-06T02:09:13;21.60;58.70
7234;DHT22;3658;47.992;10.158;2023-08-06T02:11:41;21.60;58.10
7234;DHT22;3658;47.992;10.158;2023-08-06T02:14:08;21.60;58.10
7234;DHT22;3658;47.992;10.158;2023-08-06T02:16:34;21.50;58.00
7234;DHT22;3658;47.992;10.158;2023-08-06T02:19:01;21.60;58.10
7234;DHT22;3658;47.992;10.158;2023-08-06T02:21:28;21.60;58.10
7234;DHT22;3658;47.992;10.158;2023-08-06T02:23:55;21.50;58.00
7234;DHT22;3658;47.992;10.158;2023-08-06T02:26:21;21.50;58.00
7234;DHT22;3658;47.992;10.158;2023-08-06T02:28:49;21.60;58.10
7234;DHT22;3658;47.992;10.158;2023-08-06T02:31:16;21.60;58.10
7234;DHT22;3658;47.992;10.158;2023-08-06T02:33:43;21.50;58.00
7234;DHT22;3658;47.992;10.158;2023-08-06T02:36:10;21.50;58.00
7234;DHT22;3658;47.992;10.158;2023-08-06T02:38:36;21.60;58.10
7234;DHT22;3658;47.992;10.158;2023-08-06T02:41:03;21.60;58.10
7234;DHT22;3658;47.992;10.158;2023-08-06T02:43:30;21.50;58.00
7234;DHT22;3658;47.992;10.158;2023-08-06T02:45:59;21.50;58.00
7234;DHT22;3658;47.992;10.158;2023-08-06T02:48:26;21.50;58.00
7234;DHT22;3658;47.992;10.158;2023-08-06T02:50:53;21.50;58.00
7234;DHT22;3658;47.992;10.158;2023-08-06T02:53:19;21.50;58.00
7234;DHT22;3658;47.992;10.158;2023-08-06T02:55:47;21.50;58.00
7234;DHT22;3658;47.992;10.158;2023-08-06T02:58:14;21.50;58.00
7234;DHT22;3658;47.992;10.158;2023-08-06T03:00:41;21.50;58.00
7234;DHT22;3658;47.992;10.158;2023-08-06T03:03:10;21.50;58.00
7234;DHT22;3658;47.992;10.158;2023-08-06T03:05:36;21.50;58.00
7234;DHT22;3658;47.992;10.158;2023-08-06T03:08:03;21.50;58.00
7234;DHT22;3658;47.992;10.158;2023-08-06T03:10:30;21.50;58.00
7234;DHT22;3658;47.992;10.158;2023-08-06T03:12:57;21.50;58.00
7234;DHT22;3658;47.992;10.158;2023-08-06T03:15:24;21.50;58.00
7234;DHT22;3658;47.992;10.158;2023-08-06T03:17:50;21.50;58.00
7234;DHT22;3658;47.992;10.158;2023-08-06T03:20:18;21.50;58.00
7234;DHT22;3658;47.992;10.158;2023-08-06T03:22:45;21.50;58.00
7234;DHT22;3658;47.992;10.158;2023-08-06T03:25:12;21.50;58.00
7234;DHT22;3658;47.992;10.158;2023-08-06T03:27:39;21.50;58.00
7234;DHT22;3658;47.992;10.158;2023-08-06T03:30:07;21.50;58.00
7234;DHT22;3658;47.992;10.158;2023-08-06T03:32:34;21.50;58.00
7234;DHT22;3658;47.992;10.158;2023-08-06T03:35:01;21.50;58.00
7234;DHT22;3658;47.992;10.158;2023-08-06T03:37:29;21.50;58.00
7234;DHT22;3658;47.992;10.158;2023-08-06T03:39:56;21.50;58.00
7234;DHT22;3658;47.992;10.158;2023-08-06T03:42:22;21.50;58.00
7234;DHT22;3658;47.992;10.158;2023-08-06T03:44:49;21.50;58.00
7234;DHT22;3658;47.992;10.158;2023-08-06T03:47:16;21.50;58.00
7234;DHT22;3658;47.992;10.158;2023-08-06T03:49:43;21.50;58.00
7234;DHT22;3658;47.992;10.158;2023-08-06T03:52:09;21.50;58.00
7234;DHT22;3658;47.992;10.158;2023-08-06T03:54:37;21.50;58.00
7234;DHT22;3658;47.992;10.158;2023-08-06T03:57:05;21.50;58.00
7234;DHT22;3658;47.992;10.158;2023-08-06T03:59:32;21.50;58.60
7234;DHT22;3658;47.992;10.158;2023-08-06T04:01:58;21.50;58.00
7234;DHT22;3658;47.992;10.158;2023-08-06T04:04:25;21.50;58.00
7234;DHT22;3658;47.992;10.158;2023-08-06T04:06:52;21.50;58.00
7234;DHT22;3658;47.992;10.158;2023-08-06T04:09:19;21.50;58.00
7234;DHT22;3658;47.992;10.158;2023-08-06T04:11:47;21.50;58.00
7234;DHT22;3658;47.992;10.158;2023-08-06T04:14:14;21.50;58.00
7234;DHT22;3658;47.992;10.158;2023-08-06T04:16:40;21.50;58.00
7234;DHT22;3658;47.992;10.158;2023-08-06T04:19:07;21.50;58.00
7234;DHT22;3658;47.992;10.158;2023-08-06T04:21:34;21.50;58.00
7234;DHT22;3658;47.992;10.158;2023-08-06T04:24:01;21.50;58.00
7234;DHT22;3658;47.992;10.158;2023-08-06T04:26:28;21.50;58.00
7234;DHT22;3658;47.992;10.158;2023-08-06T04:28:56;21.50;58.00
7234;DHT22;3658;47.992;10.158;2023-08-06T04:31:23;21.50;58.00
7234;DHT22;3658;47.992;10.158;2023-08-06T04:33:50;21.50;58.00
7234;DHT22;3658;47.992;10.158;2023-08-06T04:36:16;21.50;58.00
7234;DHT22;3658;47.992;10.158;2023-08-06T04:38:43;21.50;58.00
7234;DHT22;3658;47.992;10.158;2023-08-06T04:41:12;21.50;58.00
7234;DHT22;3658;47.992;10.158;2023-08-06T04:43:39;21.50;58.00
7234;DHT22;3658;47.992;10.158;2023-08-06T04:46:07;21.50;58.00
7234;DHT22;3658;47.992;10.158;2023-08-06T04:48:34;21.50;58.00
7234;DHT22;3658;47.992;10.158;2023-08-06T04:51:01;21.50;58.00
7234;DHT22;3658;47.992;10.158;2023-08-06T04:53:28;21.50;58.00
7234;DHT22;3658;47.992;10.158;2023-08-06T04:55:54;21.50;57.90
7234;DHT22;3658;47.992;10.158;2023-08-06T04:58:21;21.50;57.90
7234;DHT22;3658;47.992;10.158;2023-08-06T05:00:48;21.50;58.00
7234;DHT22;3658;47.992;10.158;2023-08-06T05:03:16;21.50;57.90
7234;DHT22;3658;47.992;10.158;2023-08-06T05:05:43;21.50;57.90
7234;DHT22;3658;47.992;10.158;2023-08-06T05:08:14;21.50;57.90
7234;DHT22;3658;47.992;10.158;2023-08-06T05:10:42;21.50;58.00
7234;DHT22;3658;47.992;10.158;2023-08-06T05:13:09;21.50;58.00
7234;DHT22;3658;47.992;10.158;2023-08-06T05:15:36;21.50;58.00
7234;DHT22;3658;47.992;10.158;2023-08-06T05:18:05;21.50;57.90
7234;DHT22;3658;47.992;10.158;2023-08-06T05:20:36;21.50;57.90
7234;DHT22;3658;47.992;10.158;2023-08-06T05:23:03;21.50;57.90
7234;DHT22;3658;47.992;10.158;2023-08-06T05:25:30;21.50;58.00
7234;DHT22;3658;47.992;10.158;2023-08-06T05:27:57;21.50;58.00
7234;DHT22;3658;47.992;10.158;2023-08-06T05:30:24;21.50;58.00
7234;DHT22;3658;47.992;10.158;2023-08-06T05:32:50;21.50;57.90
7234;DHT22;3658;47.992;10.158;2023-08-06T05:35:17;21.50;58.00
7234;DHT22;3658;47.992;10.158;2023-08-06T05:37:45;21.50;58.00
7234;DHT22;3658;47.992;10.158;2023-08-06T05:40:12;21.50;58.00
7234;DHT22;3658;47.992;10.158;2023-08-06T05:42:39;21.50;58.60
7234;DHT22;3658;47.992;10.158;2023-08-06T05:45:07;21.50;58.00
7234;DHT22;3658;47.992;10.158;2023-08-06T05:47:34;21.50;57.90
7234;DHT22;3658;47.992;10.158;2023-08-06T05:50:01;21.50;57.90
7234;DHT22;3658;47.992;10.158;2023-08-06T05:52:27;21.50;57.90
7234;DHT22;3658;47.992;10.158;2023-08-06T05:54:55;21.50;57.90
7234;DHT22;3658;47.992;10.158;2023-08-06T05:57:22;21.40;57.80
7234;DHT22;3658;47.992;10.158;2023-08-06T05:59:49;21.40;57.90
7234;DHT22;3658;47.992;10.158;2023-08-06T06:02:16;21.50;58.00
7234;DHT22;3658;47.992;10.158;2023-08-06T06:04:44;21.40;57.90
7234;DHT22;3658;47.992;10.158;2023-08-06T06:07:11;21.50;58.00
7234;DHT22;3658;47.992;10.158;2023-08-06T06:09:37;21.50;58.00
7234;DHT22;3658;47.992;10.158;2023-08-06T06:12:07;21.40;57.90
7234;DHT22;3658;47.992;10.158;2023-08-06T06:14:33;21.50;57.90
7234;DHT22;3658;47.992;10.158;2023-08-06T06:17:00;21.50;57.90
7234;DHT22;3658;47.992;10.158;2023-08-06T06:19:27;21.50;57.90
7234;DHT22;3658;47.992;10.158;2023-08-06T06:21:54;21.50;57.90
7234;DHT22;3658;47.992;10.158;2023-08-06T06:24:23;21.40;57.80
7234;DHT22;3658;47.992;10.158;2023-08-06T06:26:50;21.50;57.80
7234;DHT22;3658;47.992;10.158;2023-08-06T06:29:18;21.50;57.80
7234;DHT22;3658;47.992;10.158;2023-08-06T06:31:44;21.50;58.40
7234;DHT22;3658;47.992;10.158;2023-08-06T06:34:11;21.60;59.40
7234;DHT22;3658;47.992;10.158;2023-08-06T06:36:38;21.60;59.90
7234;DHT22;3658;47.992;10.158;2023-08-06T06:39:05;21.60;59.70
7234;DHT22;3658;47.992;10.158;2023-08-06T06:41:31;21.60;60.10
7234;DHT22;3658;47.992;10.158;2023-08-06T06:43:58;21.60;60.00
7234;DHT22;3658;47.992;10.158;2023-08-06T06:46:26;21.60;60.00
7234;DHT22;3658;47.992;10.158;2023-08-06T06:48:53;21.60;60.10
7234;DHT22;3658;47.992;10.158;2023-08-06T06:51:20;21.70;60.20
7234;DHT22;3658;47.992;10.158;2023-08-06T06:53:47;21.70;60.10
7234;DHT22;3658;47.992;10.158;2023-08-06T06:56:13;21.70;60.10
7234;DHT22;3658;47.992;10.158;2023-08-06T06:58:40;21.70;60.20
7234;DHT22;3658;47.992;10.158;2023-08-06T07:01:07;21.70;60.20
7234;DHT22;3658;47.992;10.158;2023-08-06T07:03:37;21.60;60.00
7234;DHT22;3658;47.992;10.158;2023-08-06T07:06:04;21.60;60.10
7234;DHT22;3658;47.992;10.158;2023-08-06T07:08:31;21.60;60.10
7234;DHT22;3658;47.992;10.158;2023-08-06T07:11:01;21.70;60.30
7234;DHT22;3658;47.992;10.158;2023-08-06T07:13:29;21.60;60.20
7234;DHT22;3658;47.992;10.158;2023-08-06T07:15:56;21.70;60.30
7234;DHT22;3658;47.992;10.158;2023-08-06T07:18:23;21.60;60.10
7234;DHT22;3658;47.992;10.158;2023-08-06T07:20:51;21.70;60.20
7234;DHT22;3658;47.992;10.158;2023-08-06T07:23:20;21.70;60.10
7234;DHT22;3658;47.992;10.158;2023-08-06T07:25:47;21.70;60.10
7234;DHT22;3658;47.992;10.158;2023-08-06T07:28:14;21.60;60.20
7234;DHT22;3658;47.992;10.158;2023-08-06T07:30:42;21.60;60.10
7234;DHT22;3658;47.992;10.158;2023-08-06T07:33:09;21.70;60.40
7234;DHT22;3658;47.992;10.158;2023-08-06T07:35:37;21.70;60.40
7234;DHT22;3658;47.992;10.158;2023-08-06T07:38:05;21.70;60.50
7234;DHT22;3658;47.992;10.158;2023-08-06T07:40:32;21.70;60.40
7234;DHT22;3658;47.992;10.158;2023-08-06T07:42:59;21.70;60.10
7234;DHT22;3658;47.992;10.158;2023-08-06T07:45:26;21.70;60.10
7234;DHT22;3658;47.992;10.158;2023-08-06T07:47:53;21.70;60.10
7234;DHT22;3658;47.992;10.158;2023-08-06T07:50:20;21.70;60.10
7234;DHT22;3658;47.992;10.158;2023-08-06T07:52:47;21.70;60.20
7234;DHT22;3658;47.992;10.158;2023-08-06T07:55:15;21.70;60.10
7234;DHT22;3658;47.992;10.158;2023-08-06T07:57:42;21.70;60.20
7234;DHT22;3658;47.992;10.158;2023-08-06T08:00:09;21.70;61.90
7234;DHT22;3658;47.992;10.158;2023-08-06T08:02:36;21.70;60.80
7234;DHT22;3658;47.992;10.158;2023-08-06T08:05:03;21.70;60.70
7234;DHT22;3658;47.992;10.158;2023-08-06T08:07:31;21.70;60.50
7234;DHT22;3658;47.992;10.158;2023-08-06T08:09:57;21.60;60.40
7234;DHT22;3658;47.992;10.158;2023-08-06T08:12:26;21.60;60.20
7234;DHT22;3658;47.992;10.158;2023-08-06T08:14:52;21.60;60.10
7234;DHT22;3658;47.992;10.158;2023-08-06T08:17:19;21.60;60.00
7234;DHT22;3658;47.992;10.158;2023-08-06T08:19:46;21.60;60.00
7234;DHT22;3658;47.992;10.158;2023-08-06T08:22:13;21.60;59.90
7234;DHT22;3658;47.992;10.158;2023-08-06T08:24:39;21.60;59.90
7234;DHT22;3658;47.992;10.158;2023-08-06T08:27:06;21.60;59.80
7234;DHT22;3658;47.992;10.158;2023-08-06T08:29:34;21.60;59.80
7234;DHT22;3658;47.992;10.158;2023-08-06T08:32:01;21.60;59.70
7234;DHT22;3658;47.992;10.158;2023-08-06T08:34:28;21.60;59.70
7234;DHT22;3658;47.992;10.158;2023-08-06T08:36:54;21.60;59.60
7234;DHT22;3658;47.992;10.158;2023-08-06T08:39:21;21.60;59.60
7234;DHT22;3658;47.992;10.158;2023-08-06T08:41:48;21.60;59.60
7234;DHT22;3658;47.992;10.158;2023-08-06T08:44:16;21.60;59.60
7234;DHT22;3658;47.992;10.158;2023-08-06T08:46:48;21.60;59.60
7234;DHT22;3658;47.992;10.158;2023-08-06T08:49:15;21.60;59.50
7234;DHT22;3658;47.992;10.158;2023-08-06T08:51:43;21.60;59.50
7234;DHT22;3658;47.992;10.158;2023-08-06T08:54:23;21.60;59.50
7234;DHT22;3658;47.992;10.158;2023-08-06T08:56:50;21.60;59.40
7234;DHT22;3658;47.992;10.158;2023-08-06T08:59:17;21.60;59.40
7234;DHT22;3658;47.992;10.158;2023-08-06T09:01:46;21.60;59.40
7234;DHT22;3658;47.992;10.158;2023-08-06T09:04:18;21.50;59.30
7234;DHT22;3658;47.992;10.158;2023-08-06T09:06:47;21.60;59.40
7234;DHT22;3658;47.992;10.158;2023-08-06T09:09:20;21.60;59.40
7234;DHT22;3658;47.992;10.158;2023-08-06T09:11:49;21.60;59.40
7234;DHT22;3658;47.992;10.158;2023-08-06T09:14:16;21.60;59.40
7234;DHT22;3658;47.992;10.158;2023-08-06T09:16:43;21.60;59.40
7234;DHT22;3658;47.992;10.158;2023-08-06T09:19:11;21.60;59.40
7234;DHT22;3658;47.992;10.158;2023-08-06T09:21:40;21.60;59.30
7234;DHT22;3658;47.992;10.158;2023-08-06T09:24:10;21.60;59.40
7234;DHT22;3658;47.992;10.158;2023-08-06T09:26:37;21.60;59.40
7234;DHT22;3658;47.992;10.158;2023-08-06T09:29:05;21.60;59.40
7234;DHT22;3658;47.992;10.158;2023-08-06T09:31:34;21.60;59.40
7234;DHT22;3658;47.992;10.158;2023-08-06T09:34:10;21.50;59.30
7234;DHT22;3658;47.992;10.158;2023-08-06T09:36:41;21.50;59.20
7234;DHT22;3658;47.992;10.158;2023-08-06T09:39:13;21.60;59.30
7234;DHT22;3658;47.992;10.158;2023-08-06T09:41:40;21.60;59.30
7234;DHT22;3658;47.992;10.158;2023-08-06T09:44:15;21.60;59.30
7234;DHT22;3658;47.992;10.158;2023-08-06T09:46:45;21.60;59.30
7234;DHT22;3658;47.992;10.158;2023-08-06T09:49:13;21.60;59.30
7234;DHT22;3658;47.992;10.158;2023-08-06T09:51:41;21.60;59.30
7234;DHT22;3658;47.992;10.158;2023-08-06T09:54:12;21.60;59.30
7234;DHT22;3658;47.992;10.158;2023-08-06T09:56:39;21.50;59.20
7234;DHT22;3658;47.992;10.158;2023-08-06T09:59:07;21.50;59.20
7234;DHT22;3658;47.992;10.158;2023-08-06T10:01:34;21.60;59.30
7234;DHT22;3658;47.992;10.158;2023-08-06T10:04:03;21.60;59.30
7234;DHT22;3658;47.992;10.158;2023-08-06T10:06:34;21.50;59.20
7234;DHT22;3658;47.992;10.158;2023-08-06T10:09:03;21.60;59.30
7234;DHT22;3658;47.992;10.158;2023-08-06T10:11:31;21.50;59.80
7234;DHT22;3658;47.992;10.158;2023-08-06T10:14:02;21.50;59.20
7234;DHT22;3658;47.992;10.158;2023-08-06T10:16:31;21.50;59.20
7234;DHT22;3658;47.992;10.158;2023-08-06T10:18:59;21.50;59.20
7234;DHT22;3658;47.992;10.158;2023-08-06T10:21:27;21.50;59.20
7234;DHT22;3658;47.992;10.158;2023-08-06T10:23:56;21.50;59.10
7234;DHT22;3658;47.992;10.158;2023-08-06T10:26:27;21.50;59.10
7234;DHT22;3658;47.992;10.158;2023-08-06T10:28:54;21.50;59.10
7234;DHT22;3658;47.992;10.158;2023-08-06T10:31:55;21.50;59.00
7234;DHT22;3658;47.992;10.158;2023-08-06T10:34:25;21.60;59.00
7234;DHT22;3658;47.992;10.158;2023-08-06T10:36:54;21.50;58.90
7234;DHT22;3658;47.992;10.158;2023-08-06T10:39:22;21.50;58.90
7234;DHT22;3658;47.992;10.158;2023-08-06T10:41:50;21.60;59.00
7234;DHT22;3658;47.992;10.158;2023-08-06T10:44:17;21.50;58.90
7234;DHT22;3658;47.992;10.158;2023-08-06T10:46:44;21.50;58.90
7234;DHT22;3658;47.992;10.158;2023-08-06T10:49:17;21.60;59.00
7234;DHT22;3658;47.992;10.158;2023-08-06T10:51:45;21.50;58.90
7234;DHT22;3658;47.992;10.158;2023-08-06T10:54:12;21.60;59.00
7234;DHT22;3658;47.992;10.158;2023-08-06T10:56:40;21.50;59.00
7234;DHT22;3658;47.992;10.158;2023-08-06T10:59:09;21.50;59.00
7234;DHT22;3658;47.992;10.158;2023-08-06T11:01:37;21.60;59.10
7234;DHT22;3658;47.992;10.158;2023-08-06T11:04:05;21.60;59.00
7234;DHT22;3658;47.992;10.158;2023-08-06T11:06:32;21.60;59.00
7234;DHT22;3658;47.992;10.158;2023-08-06T11:09:01;21.60;58.90
7234;DHT22;3658;47.992;10.158;2023-08-06T11:11:28;21.50;58.80
7234;DHT22;3658;47.992;10.158;2023-08-06T11:13:55;21.50;58.80
7234;DHT22;3658;47.992;10.158;2023-08-06T11:16:24;21.60;58.80
7234;DHT22;3658;47.992;10.158;2023-08-06T11:18:51;21.60;58.80
7234;DHT22;3658;47.992;10.158;2023-08-06T11:21:20;21.60;58.80
7234;DHT22;3658;47.992;10.158;2023-08-06T11:23:48;21.60;58.80
7234;DHT22;3658;47.992;10.158;2023-08-06T11:26:18;21.50;58.70
7234;DHT22;3658;47.992;10.158;2023-08-06T11:28:46;21.60;58.80
7234;DHT22;3658;47.992;10.158;2023-08-06T11:31:19;21.60;58.80
7234;DHT22;3658;47.992;10.158;2023-08-06T11:33:47;21.60;58.70
7234;DHT22;3658;47.992;10.158;2023-08-06T11:36:14;21.50;58.70
7234;DHT22;3658;47.992;10.158;2023-08-06T11:38:41;21.60;58.80
7234;DHT22;3658;47.992;10.158;2023-08-06T11:41:08;21.60;58.80
7234;DHT22;3658;47.992;10.158;2023-08-06T11:43:34;21.60;58.80
7234;DHT22;3658;47.992;10.158;2023-08-06T11:46:01;21.60;58.90
7234;DHT22;3658;47.992;10.158;2023-08-06T11:48:28;21.60;58.90
7234;DHT22;3658;47.992;10.158;2023-08-06T11:50:56;21.60;59.00
7234;DHT22;3658;47.992;10.158;2023-08-06T11:53:27;21.50;58.90
7234;DHT22;3658;47.992;10.158;2023-08-06T11:55:55;21.50;59.00
7234;DHT22;3658;47.992;10.158;2023-08-06T11:58:22;21.50;59.00
7234;DHT22;3658;47.992;10.158;2023-08-06T12:00:48;21.50;58.90
7234;DHT22;3658;47.992;10.158;2023-08-06T12:03:18;21.50;58.90
7234;DHT22;3658;47.992;10.158;2023-08-06T12:05:45;21.50;58.90
7234;DHT22;3658;47.992;10.158;2023-08-06T12:08:14;21.50;58.90
7234;DHT22;3658;47.992;10.158;2023-08-06T12:10:41;21.50;59.00
7234;DHT22;3658;47.992;10.158;2023-08-06T12:13:08;21.50;58.90
7234;DHT22;3658;47.992;10.158;2023-08-06T12:15:34;21.50;58.90
7234;DHT22;3658;47.992;10.158;2023-08-06T12:18:01;21.50;58.80
7234;DHT22;3658;47.992;10.158;2023-08-06T12:20:28;21.50;58.90
7234;DHT22;3658;47.992;10.158;2023-08-06T12:22:55;21.50;58.80
7234;DHT22;3658;47.992;10.158;2023-08-06T12:25:23;21.50;58.80
7234;DHT22;3658;47.992;10.158;2023-08-06T12:27:50;21.50;58.80
7234;DHT22;3658;47.992;10.158;2023-08-06T12:30:16;21.50;58.80
7234;DHT22;3658;47.992;10.158;2023-08-06T12:32:43;21.50;58.90
7234;DHT22;3658;47.992;10.158;2023-08-06T12:35:10;21.50;58.90
7234;DHT22;3658;47.992;10.158;2023-08-06T12:37:37;21.50;58.90
7234;DHT22;3658;47.992;10.158;2023-08-06T12:40:06;21.50;59.50
7234;DHT22;3658;47.992;10.158;2023-08-06T12:42:34;21.50;58.90
7234;DHT22;3658;47.992;10.158;2023-08-06T12:45:01;21.50;58.80
7234;DHT22;3658;47.992;10.158;2023-08-06T12:47:30;21.50;58.80
7234;DHT22;3658;47.992;10.158;2023-08-06T12:49:57;21.50;58.80
7234;DHT22;3658;47.992;10.158;2023-08-06T12:52:24;21.50;58.80
7234;DHT22;3658;47.992;10.158;2023-08-06T12:54:51;21.50;58.70
7234;DHT22;3658;47.992;10.158;2023-08-06T12:57:17;21.50;58.70
7234;DHT22;3658;47.992;10.158;2023-08-06T12:59:46;21.50;58.70
7234;DHT22;3658;47.992;10.158;2023-08-06T13:02:13;21.50;58.70
7234;DHT22;3658;47.992;10.158;2023-08-06T13:04:40;21.50;58.70
7234;DHT22;3658;47.992;10.158;2023-08-06T13:07:07;21.50;58.70
7234;DHT22;3658;47.992;10.158;2023-08-06T13:09:33;21.50;58.70
7234;DHT22;3658;47.992;10.158;2023-08-06T13:12:00;21.50;58.70
7234;DHT22;3658;47.992;10.158;2023-08-06T13:14:31;21.50;58.60
7234;DHT22;3658;47.992;10.158;2023-08-06T13:17:00;21.50;58.70
7234;DHT22;3658;47.992;10.158;2023-08-06T13:19:27;21.50;58.60
7234;DHT22;3658;47.992;10.158;2023-08-06T13:22:03;21.50;58.60
7234;DHT22;3658;47.992;10.158;2023-08-06T13:24:32;21.50;58.60
7234;DHT22;3658;47.992;10.158;2023-08-06T13:27:00;21.50;58.80
7234;DHT22;3658;47.992;10.158;2023-08-06T13:29:27;21.50;58.80
7234;DHT22;3658;47.992;10.158;2023-08-06T13:31:54;21.60;59.00
7234;DHT22;3658;47.992;10.158;2023-08-06T13:34:22;21.50;58.90
7234;DHT22;3658;47.992;10.158;2023-08-06T13:36:49;21.60;59.10
7234;DHT22;3658;47.992;10.158;2023-08-06T13:39:16;21.60;59.20
7234;DHT22;3658;47.992;10.158;2023-08-06T13:41:43;21.60;59.20
7234;DHT22;3658;47.992;10.158;2023-08-06T13:44:10;21.60;59.10
7234;DHT22;3658;47.992;10.158;2023-08-06T13:46:40;21.60;59.20
7234;DHT22;3658;47.992;10.158;2023-08-06T13:49:06;21.50;59.20
7234;DHT22;3658;47.992;10.158;2023-08-06T13:51:35;21.50;59.10
7234;DHT22;3658;47.992;10.158;2023-08-06T13:54:01;21.50;59.20
7234;DHT22;3658;47.992;10.158;2023-08-06T13:56:28;21.60;59.20
7234;DHT22;3658;47.992;10.158;2023-08-06T13:58:56;21.60;59.20
7234;DHT22;3658;47.992;10.158;2023-08-06T14:01:23;21.50;59.10
7234;DHT22;3658;47.992;10.158;2023-08-06T14:03:50;21.50;59.10
7234;DHT22;3658;47.992;10.158;2023-08-06T14:06:17;21.50;59.00
7234;DHT22;3658;47.992;10.158;2023-08-06T14:08:45;21.50;59.00
7234;DHT22;3658;47.992;10.158;2023-08-06T14:11:12;21.60;58.80
7234;DHT22;3658;47.992;10.158;2023-08-06T14:13:39;21.50;59.00
7234;DHT22;3658;47.992;10.158;2023-08-06T14:16:06;21.60;59.10
7234;DHT22;3658;47.992;10.158;2023-08-06T14:18:33;21.60;59.10
7234;DHT22;3658;47.992;10.158;2023-08-06T14:21:03;21.60;59.10
7234;DHT22;3658;47.992;10.158;2023-08-06T14:23:30;21.50;59.00
7234;DHT22;3658;47.992;10.158;2023-08-06T14:25:58;21.60;59.10
7234;DHT22;3658;47.992;10.158;2023-08-06T14:28:25;21.60;59.10
7234;DHT22;3658;47.992;10.158;2023-08-06T14:30:52;21.50;59.00
7234;DHT22;3658;47.992;10.158;2023-08-06T14:33:19;21.50;59.00
7234;DHT22;3658;47.992;10.158;2023-08-06T14:35:45;21.50;59.00
7234;DHT22;3658;47.992;10.158;2023-08-06T14:38:12;21.50;59.00
7234;DHT22;3658;47.992;10.158;2023-08-06T14:40:39;21.50;59.00
7234;DHT22;3658;47.992;10.158;2023-08-06T14:43:07;21.50;59.00
7234;DHT22;3658;47.992;10.158;2023-08-06T14:45:37;21.50;59.00
7234;DHT22;3658;47.992;10.158;2023-08-06T14:48:04;21.50;59.10
7234;DHT22;3658;47.992;10.158;2023-08-06T14:50:31;21.50;59.30
7234;DHT22;3658;47.992;10.158;2023-08-06T14:52:58;21.60;59.20
7234;DHT22;3658;47.992;10.158;2023-08-06T14:55:26;21.60;60.10
7234;DHT22;3658;47.992;10.158;2023-08-06T14:57:53;21.60;60.10
7234;DHT22;3658;47.992;10.158;2023-08-06T15:00:21;21.70;60.20
7234;DHT22;3658;47.992;10.158;2023-08-06T15:02:48;21.70;60.30
7234;DHT22;3658;47.992;10.158;2023-08-06T15:05:15;21.80;60.20
7234;DHT22;3658;47.992;10.158;2023-08-06T15:07:42;21.80;60.20
7234;DHT22;3658;47.992;10.158;2023-08-06T15:10:09;21.80;60.10
7234;DHT22;3658;47.992;10.158;2023-08-06T15:12:36;21.80;60.00
7234;DHT22;3658;47.992;10.158;2023-08-06T15:15:06;21.80;59.90
7234;DHT22;3658;47.992;10.158;2023-08-06T15:17:34;21.90;59.80
7234;DHT22;3658;47.992;10.158;2023-08-06T15:20:01;21.80;59.80
7234;DHT22;3658;47.992;10.158;2023-08-06T15:22:29;21.80;60.20
7234;DHT22;3658;47.992;10.158;2023-08-06T15:24:57;21.80;60.10
7234;DHT22;3658;47.992;10.158;2023-08-06T15:27:24;21.90;60.10
7234;DHT22;3658;47.992;10.158;2023-08-06T15:29:51;21.90;60.00
7234;DHT22;3658;47.992;10.158;2023-08-06T15:32:18;21.90;59.90
7234;DHT22;3658;47.992;10.158;2023-08-06T15:34:47;21.90;59.90
7234;DHT22;3658;47.992;10.158;2023-08-06T15:37:14;21.90;59.80
7234;DHT22;3658;47.992;10.158;2023-08-06T15:39:41;21.90;59.60
7234;DHT22;3658;47.992;10.158;2023-08-06T15:42:08;21.80;59.60
7234;DHT22;3658;47.992;10.158;2023-08-06T15:44:35;21.70;60.00
7234;DHT22;3658;47.992;10.158;2023-08-06T15:47:02;21.70;59.50